Mumford, NY (14511)

10:29 AM EST on December 25, 2014 (GMT -0500)
Mumford | Change Station
CLOSE
Current Station
Personal Weather Station
Location: Scottsville, NY
Elevation: 600 ft
Nearby Weather Stations

Elev 600 ft 43.00 °N, 77.85 °W | Updated 16 seconds ago

Overcast
Overcast
42.1 °F
Feels Like 40 °F
N
4.0
Wind Variable Wind from NW
Gusts 4.9 mph

Today
High -- | Low -- °F
--% Chance of Precip.
Yesterday
High -- | Low -- °F
Precip. -- in
7:41 AM 4:42 PM
Waxing Crescent, 17% visible
Pressure 29.71 in
Visibility 10.0 miles
Clouds Overcast 2500 ft
Windchill 40 °F
Dew Point 32 °F
Humidity 67%
Rainfall 0.00 in
Snow Depth Not available.
UV 1.0 out of 12
Pollen .10 out of 12
Air Quality Not available.
Flu Activity Not available.
METAR KROC 251454Z 26021G28KT 10SM OVC025 06/01 A2969 RMK AO2 PK WND 26033/1419 SLP059 60000 T00560006 53036

More Conditions Fewer Conditions

Pressure 29.71 in
Visibility 10.0 miles
Clouds Overcast 2500 ft
Windchill 40 °F
Dew Point 32 °F
Humidity 67%
Rainfall 0.00 in
Snow Depth Not available.
UV 1.0 out of 12
Pollen .10 out of 12
Air Quality Not available.
Flu Activity Not available.
METAR KROC 251454Z 26021G28KT 10SM OVC025 06/01 A2969 RMK AO2 PK WND 26033/1419 SLP059 60000 T00560006 53036

More Conditions Fewer Conditions

10-Day Weather Forecast

Almanac

Astronomy

Dec. 25, 2014 Rise Set
Actual Time
Civil Twilight
Nautical Twilight
Astronomical Twilight
Moon
Length of Visible Light
Length of Day
Tomorrow will be .
, % of the Moon is Illuminated

Today's Extremes

State Highs State Lows

Community

WunderPhotos

Upload Photos

1,780,302 photos uploaded!

WunderBlogs® & News

Nearby

Air Quality

  Air Quality AQ Index Pollutant
Not available.

Snow Depth

Station Depth Elevation

Earthquake Activity

City Distance Mag. Time & Date
Minimum magnitude displayed is 2.5.

Coastal Water Temperatures

Place Temperature

Nearby Weather Stations